sensor_id;sensor_type;location;lat;lon;timestamp;pressure;altitude;pressure_sealevel;temperature;humidity
76046;BME280;64741;41.730;44.788;2023-02-01T00:01:47;983.9;;;21.9;43.3
76046;BME280;64741;41.730;44.788;2023-02-01T00:06:53;983.9;;;21.9;43.5
76046;BME280;64741;41.730;44.788;2023-02-01T00:11:51;983.8;;;21.9;43.4
76046;BME280;64741;41.730;44.788;2023-02-01T00:16:49;983.8;;;21.9;43.4
76046;BME280;64741;41.730;44.788;2023-02-01T00:21:51;983.7;;;21.9;43.5
76046;BME280;64741;41.730;44.788;2023-02-01T00:26:49;983.7;;;21.9;43.5
76046;BME280;64741;41.730;44.788;2023-02-01T00:31:49;983.6;;;21.9;43.6
76046;BME280;64741;41.730;44.788;2023-02-01T00:36:51;983.6;;;21.9;43.5
76046;BME280;64741;41.730;44.788;2023-02-01T00:41:51;983.6;;;21.9;43.4
76046;BME280;64741;41.730;44.788;2023-02-01T00:46:49;983.6;;;21.9;43.4
76046;BME280;64741;41.730;44.788;2023-02-01T00:51:51;983.6;;;21.9;43.5
76046;BME280;64741;41.730;44.788;2023-02-01T00:56:49;983.6;;;21.9;43.5
76046;BME280;64741;41.730;44.788;2023-02-01T01:01:49;983.6;;;21.9;43.4
76046;BME280;64741;41.730;44.788;2023-02-01T01:06:49;983.6;;;21.9;43.3
76046;BME280;64741;41.730;44.788;2023-02-01T01:11:51;983.5;;;21.9;43.4
76046;BME280;64741;41.730;44.788;2023-02-01T01:16:53;983.5;;;21.9;43.4
76046;BME280;64741;41.730;44.788;2023-02-01T01:21:49;983.5;;;21.9;43.4
76046;BME280;64741;41.730;44.788;2023-02-01T01:26:53;983.5;;;21.9;43.3
76046;BME280;64741;41.730;44.788;2023-02-01T01:31:51;983.5;;;21.9;43.3
76046;BME280;64741;41.730;44.788;2023-02-01T01:36:51;983.5;;;21.9;43.4
76046;BME280;64741;41.730;44.788;2023-02-01T01:41:51;983.4;;;21.9;43.3
76046;BME280;64741;41.730;44.788;2023-02-01T01:46:53;983.5;;;21.8;43.3
76046;BME280;64741;41.730;44.788;2023-02-01T01:51:52;983.5;;;21.8;43.4
76046;BME280;64741;41.730;44.788;2023-02-01T01:56:51;983.5;;;21.8;43.3
76046;BME280;64741;41.730;44.788;2023-02-01T02:01:47;983.5;;;21.8;43.3
76046;BME280;64741;41.730;44.788;2023-02-01T02:06:51;983.5;;;21.8;43.2
76046;BME280;64741;41.730;44.788;2023-02-01T02:11:49;983.5;;;21.8;43.3
76046;BME280;64741;41.730;44.788;2023-02-01T02:16:58;983.5;;;21.8;43.4
76046;BME280;64741;41.730;44.788;2023-02-01T02:21:54;983.5;;;21.8;43.4
76046;BME280;64741;41.730;44.788;2023-02-01T02:26:53;983.4;;;21.8;43.5
76046;BME280;64741;41.730;44.788;2023-02-01T02:32:23;983.5;;;21.8;43.5
76046;BME280;64741;41.730;44.788;2023-02-01T02:36:54;983.6;;;21.8;43.5
76046;BME280;64741;41.730;44.788;2023-02-01T02:41:53;983.6;;;21.8;43.5
76046;BME280;64741;41.730;44.788;2023-02-01T02:46:51;983.5;;;21.8;43.4
76046;BME280;64741;41.730;44.788;2023-02-01T02:51:52;983.5;;;21.8;43.2
76046;BME280;64741;41.730;44.788;2023-02-01T02:56:49;983.5;;;21.8;43.1
76046;BME280;64741;41.730;44.788;2023-02-01T03:01:49;983.5;;;21.8;43.2
76046;BME280;64741;41.730;44.788;2023-02-01T03:06:49;983.5;;;21.8;43.3
76046;BME280;64741;41.730;44.788;2023-02-01T03:11:41;983.6;;;21.8;43.4
76046;BME280;64741;41.730;44.788;2023-02-01T03:16:54;983.6;;;21.8;43.3
76046;BME280;64741;41.730;44.788;2023-02-01T03:21:54;983.6;;;21.8;43.3
76046;BME280;64741;41.730;44.788;2023-02-01T03:26:48;983.6;;;21.8;43.3
76046;BME280;64741;41.730;44.788;2023-02-01T03:31:51;983.7;;;21.8;43.4
76046;BME280;64741;41.730;44.788;2023-02-01T03:36:40;983.8;;;21.8;43.3
76046;BME280;64741;41.730;44.788;2023-02-01T03:41:50;983.8;;;21.8;43.3
76046;BME280;64741;41.730;44.788;2023-02-01T03:46:52;983.8;;;21.7;43.3
76046;BME280;64741;41.730;44.788;2023-02-01T03:51:51;983.8;;;21.7;43.2
76046;BME280;64741;41.730;44.788;2023-02-01T03:56:33;983.8;;;21.7;43.2
76046;BME280;64741;41.730;44.788;2023-02-01T04:01:53;983.8;;;21.7;43.1
76046;BME280;64741;41.730;44.788;2023-02-01T04:06:51;983.9;;;21.7;43.3
76046;BME280;64741;41.730;44.788;2023-02-01T04:11:53;983.9;;;21.7;43.3
76046;BME280;64741;41.730;44.788;2023-02-01T04:16:51;984;;;21.7;43.4
76046;BME280;64741;41.730;44.788;2023-02-01T04:21:53;984;;;21.7;43.3
76046;BME280;64741;41.730;44.788;2023-02-01T04:26:51;984.1;;;21.7;43.2
76046;BME280;64741;41.730;44.788;2023-02-01T04:31:27;984.2;;;21.7;43.3
76046;BME280;64741;41.730;44.788;2023-02-01T04:36:51;984.3;;;21.7;43.2
76046;BME280;64741;41.730;44.788;2023-02-01T04:41:49;984.3;;;21.7;43.2
76046;BME280;64741;41.730;44.788;2023-02-01T04:46:49;984.3;;;21.7;43.3
76046;BME280;64741;41.730;44.788;2023-02-01T04:51:51;984.4;;;21.7;43.2
76046;BME280;64741;41.730;44.788;2023-02-01T04:56:49;984.4;;;21.7;43.2
76046;BME280;64741;41.730;44.788;2023-02-01T05:01:49;984.5;;;21.7;43
76046;BME280;64741;41.730;44.788;2023-02-01T05:06:53;984.5;;;21.7;43.2
76046;BME280;64741;41.730;44.788;2023-02-01T05:11:51;984.6;;;21.7;43.3
76046;BME280;64741;41.730;44.788;2023-02-01T05:16:51;984.7;;;21.7;43.3
76046;BME280;64741;41.730;44.788;2023-02-01T05:21:55;984.7;;;21.7;43.1
76046;BME280;64741;41.730;44.788;2023-02-01T05:26:55;984.7;;;21.6;43.2
76046;BME280;64741;41.730;44.788;2023-02-01T05:31:47;984.7;;;21.6;43
76046;BME280;64741;41.730;44.788;2023-02-01T05:36:51;984.8;;;21.6;43
76046;BME280;64741;41.730;44.788;2023-02-01T05:41:55;984.8;;;21.6;43
76046;BME280;64741;41.730;44.788;2023-02-01T05:46:41;984.9;;;21.6;43
76046;BME280;64741;41.730;44.788;2023-02-01T05:51:53;984.9;;;21.6;42.9
76046;BME280;64741;41.730;44.788;2023-02-01T05:56:41;984.9;;;21.6;42.9
76046;BME280;64741;41.730;44.788;2023-02-01T06:01:49;985;;;21.7;42.8
76046;BME280;64741;41.730;44.788;2023-02-01T06:06:47;985;;;21.7;42.9
76046;BME280;64741;41.730;44.788;2023-02-01T06:11:51;985;;;21.7;43
76046;BME280;64741;41.730;44.788;2023-02-01T06:16:51;985;;;21.7;43
76046;BME280;64741;41.730;44.788;2023-02-01T06:21:51;985;;;21.7;42.9
76046;BME280;64741;41.730;44.788;2023-02-01T06:26:51;985;;;21.7;43.4
76046;BME280;64741;41.730;44.788;2023-02-01T06:31:47;985;;;21.8;44.4
76046;BME280;64741;41.730;44.788;2023-02-01T06:36:53;985.1;;;21.9;46.3
76046;BME280;64741;41.730;44.788;2023-02-01T06:41:47;985.1;;;21.9;47.3
76046;BME280;64741;41.730;44.788;2023-02-01T06:46:51;985.1;;;22;47.7
76046;BME280;64741;41.730;44.788;2023-02-01T06:51:49;985;;;22;48.6
76046;BME280;64741;41.730;44.788;2023-02-01T06:56:53;985;;;22.1;50.1
76046;BME280;64741;41.730;44.788;2023-02-01T07:01:49;985;;;22.1;50.4
76046;BME280;64741;41.730;44.788;2023-02-01T07:06:51;985.1;;;22.2;49.4
76046;BME280;64741;41.730;44.788;2023-02-01T07:11:53;985;;;22.2;48.5
76046;BME280;64741;41.730;44.788;2023-02-01T07:16:41;985;;;22.2;47.6
76046;BME280;64741;41.730;44.788;2023-02-01T07:21:51;984.9;;;22.2;47
76046;BME280;64741;41.730;44.788;2023-02-01T07:26:51;984.9;;;22.2;46.4
76046;BME280;64741;41.730;44.788;2023-02-01T07:31:51;984.9;;;22.2;45.9
76046;BME280;64741;41.730;44.788;2023-02-01T07:36:51;984.9;;;22.1;45.6
76046;BME280;64741;41.730;44.788;2023-02-01T07:41:55;984.8;;;22.1;45.4
76046;BME280;64741;41.730;44.788;2023-02-01T07:46:57;984.7;;;22.1;45
76046;BME280;64741;41.730;44.788;2023-02-01T07:51:53;984.7;;;22.1;44.8
76046;BME280;64741;41.730;44.788;2023-02-01T07:56:53;984.6;;;22.1;44.8
76046;BME280;64741;41.730;44.788;2023-02-01T08:01:51;984.5;;;22.1;44.6
76046;BME280;64741;41.730;44.788;2023-02-01T08:06:51;984.5;;;22.1;44.6
76046;BME280;64741;41.730;44.788;2023-02-01T08:11:49;984.4;;;22.1;44.7
76046;BME280;64741;41.730;44.788;2023-02-01T08:16:53;984.4;;;22.1;44.7
76046;BME280;64741;41.730;44.788;2023-02-01T08:21:55;984.3;;;22.1;44.7
76046;BME280;64741;41.730;44.788;2023-02-01T08:26:51;984.3;;;22.1;44.5
76046;BME280;64741;41.730;44.788;2023-02-01T08:31:55;984.2;;;22.1;44.4
76046;BME280;64741;41.730;44.788;2023-02-01T08:36:53;984.1;;;22.1;44.4
76046;BME280;64741;41.730;44.788;2023-02-01T08:41:51;984.1;;;22.1;44.4
76046;BME280;64741;41.730;44.788;2023-02-01T08:46:55;984;;;22.1;44.3
76046;BME280;64741;41.730;44.788;2023-02-01T08:51:53;983.9;;;22.1;44
76046;BME280;64741;41.730;44.788;2023-02-01T08:56:19;983.8;;;22.1;44
76046;BME280;64741;41.730;44.788;2023-02-01T09:01:51;983.7;;;22.1;44.1
76046;BME280;64741;41.730;44.788;2023-02-01T09:06:55;983.7;;;22.1;44
76046;BME280;64741;41.730;44.788;2023-02-01T09:11:49;983.6;;;22.1;43.8
76046;BME280;64741;41.730;44.788;2023-02-01T09:16:51;983.5;;;22.1;43.7
76046;BME280;64741;41.730;44.788;2023-02-01T09:21:51;983.5;;;22.1;43.7
76046;BME280;64741;41.730;44.788;2023-02-01T09:26:41;983.5;;;22.1;43.7
76046;BME280;64741;41.730;44.788;2023-02-01T09:31:49;983.4;;;22.1;43.6
76046;BME280;64741;41.730;44.788;2023-02-01T09:36:39;983.4;;;22.1;43.5
76046;BME280;64741;41.730;44.788;2023-02-01T09:41:56;983.3;;;22.1;43.4
76046;BME280;64741;41.730;44.788;2023-02-01T09:46:53;983.2;;;22.1;43.4
76046;BME280;64741;41.730;44.788;2023-02-01T09:51:53;983.2;;;22.1;43.2
76046;BME280;64741;41.730;44.788;2023-02-01T09:56:56;983.1;;;22.1;43.2
76046;BME280;64741;41.730;44.788;2023-02-01T10:01:49;983;;;22.1;43.2
76046;BME280;64741;41.730;44.788;2023-02-01T10:06:56;982.9;;;22.1;43.2
76046;BME280;64741;41.730;44.788;2023-02-01T10:12:00;982.9;;;22.1;43
76046;BME280;64741;41.730;44.788;2023-02-01T10:16:51;982.8;;;22.1;42.9
76046;BME280;64741;41.730;44.788;2023-02-01T10:21:54;982.8;;;22.1;43.1
76046;BME280;64741;41.730;44.788;2023-02-01T10:26:53;982.8;;;22.1;42.9
76046;BME280;64741;41.730;44.788;2023-02-01T10:31:49;982.7;;;22.1;42.7
76046;BME280;64741;41.730;44.788;2023-02-01T10:36:55;982.6;;;22;42.8
76046;BME280;64741;41.730;44.788;2023-02-01T10:41:49;982.6;;;22.1;42.9
76046;BME280;64741;41.730;44.788;2023-02-01T10:46:57;982.6;;;22.1;42.8
76046;BME280;64741;41.730;44.788;2023-02-01T10:51:44;982.5;;;22;42.8
76046;BME280;64741;41.730;44.788;2023-02-01T10:56:55;982.5;;;22;42.7
76046;BME280;64741;41.730;44.788;2023-02-01T11:01:57;982.5;;;22;42.8
76046;BME280;64741;41.730;44.788;2023-02-01T11:06:45;982.4;;;22;42.9
76046;BME280;64741;41.730;44.788;2023-02-01T11:11:53;982.4;;;22;42.9
76046;BME280;64741;41.730;44.788;2023-02-01T11:16:53;982.4;;;22;42.7
76046;BME280;64741;41.730;44.788;2023-02-01T11:21:54;982.4;;;22.1;42.8
76046;BME280;64741;41.730;44.788;2023-02-01T11:26:54;982.3;;;22.1;42.8
76046;BME280;64741;41.730;44.788;2023-02-01T11:31:51;982.4;;;22.1;42.8
76046;BME280;64741;41.730;44.788;2023-02-01T11:36:51;982.3;;;22.1;42.8
76046;BME280;64741;41.730;44.788;2023-02-01T11:41:55;982.3;;;22.1;43
76046;BME280;64741;41.730;44.788;2023-02-01T11:47:08;982.4;;;22.1;43.5
76046;BME280;64741;41.730;44.788;2023-02-01T11:51:56;982.4;;;22.1;44.3
76046;BME280;64741;41.730;44.788;2023-02-01T11:56:59;982.4;;;22.1;45.4
76046;BME280;64741;41.730;44.788;2023-02-01T12:02:33;982.4;;;22.2;46.7
76046;BME280;64741;41.730;44.788;2023-02-01T12:06:51;982.3;;;22.2;47.3
76046;BME280;64741;41.730;44.788;2023-02-01T12:11:56;982.3;;;22.2;47.5
76046;BME280;64741;41.730;44.788;2023-02-01T12:17:00;982.4;;;22.2;47.5
76046;BME280;64741;41.730;44.788;2023-02-01T12:21:57;982.5;;;22.2;47.4
76046;BME280;64741;41.730;44.788;2023-02-01T12:26:58;982.5;;;22.3;47.9
76046;BME280;64741;41.730;44.788;2023-02-01T12:32:01;982.5;;;22.3;48.7
76046;BME280;64741;41.730;44.788;2023-02-01T12:36:52;982.5;;;22.3;49.3
76046;BME280;64741;41.730;44.788;2023-02-01T12:41:57;982.5;;;22.4;50.2
76046;BME280;64741;41.730;44.788;2023-02-01T12:46:57;982.5;;;22.4;50.6
76046;BME280;64741;41.730;44.788;2023-02-01T12:51:58;982.6;;;22.4;50.8
76046;BME280;64741;41.730;44.788;2023-02-01T12:56:46;982.6;;;22.4;50.6
76046;BME280;64741;41.730;44.788;2023-02-01T13:01:52;982.7;;;22.4;50.2
76046;BME280;64741;41.730;44.788;2023-02-01T13:06:54;982.8;;;22.4;50
76046;BME280;64741;41.730;44.788;2023-02-01T13:11:54;982.8;;;22.4;49.6
76046;BME280;64741;41.730;44.788;2023-02-01T13:16:56;982.7;;;22.4;49
76046;BME280;64741;41.730;44.788;2023-02-01T13:21:56;982.7;;;22.4;48.4
76046;BME280;64741;41.730;44.788;2023-02-01T13:26:53;982.8;;;22.3;48
76046;BME280;64741;41.730;44.788;2023-02-01T13:31:55;982.9;;;22.3;47.6
76046;BME280;64741;41.730;44.788;2023-02-01T13:36:58;983;;;22.3;47.4
76046;BME280;64741;41.730;44.788;2023-02-01T13:41:52;983;;;22.3;47
76046;BME280;64741;41.730;44.788;2023-02-01T13:46:54;983;;;22.2;47
76046;BME280;64741;41.730;44.788;2023-02-01T13:51:53;983;;;22.2;47
76046;BME280;64741;41.730;44.788;2023-02-01T13:56:41;983.1;;;22.2;47.2
76046;BME280;64741;41.730;44.788;2023-02-01T14:01:53;983.2;;;22.2;47.6
76046;BME280;64741;41.730;44.788;2023-02-01T14:06:53;983.3;;;22.3;48.3
76046;BME280;64741;41.730;44.788;2023-02-01T14:11:53;983.3;;;22.3;48.6
76046;BME280;64741;41.730;44.788;2023-02-01T14:17:30;983.3;;;22.4;48.5
76046;BME280;64741;41.730;44.788;2023-02-01T14:21:54;983.4;;;22.4;48.2
76046;BME280;64741;41.730;44.788;2023-02-01T14:26:42;983.4;;;22.4;48
76046;BME280;64741;41.730;44.788;2023-02-01T14:31:54;983.5;;;22.4;47.7
76046;BME280;64741;41.730;44.788;2023-02-01T14:36:55;983.5;;;22.4;47.5
76046;BME280;64741;41.730;44.788;2023-02-01T14:41:43;983.6;;;22.4;47.2
76046;BME280;64741;41.730;44.788;2023-02-01T14:47:27;983.7;;;22.4;47
76046;BME280;64741;41.730;44.788;2023-02-01T14:51:53;983.7;;;22.4;46.8
76046;BME280;64741;41.730;44.788;2023-02-01T14:56:55;983.8;;;22.4;46.7
76046;BME280;64741;41.730;44.788;2023-02-01T15:01:50;983.8;;;22.4;46.6
76046;BME280;64741;41.730;44.788;2023-02-01T15:06:52;983.9;;;22.4;46.5
76046;BME280;64741;41.730;44.788;2023-02-01T15:11:55;984;;;22.4;46.4
76046;BME280;64741;41.730;44.788;2023-02-01T15:16:51;984.2;;;22.4;46.2
76046;BME280;64741;41.730;44.788;2023-02-01T15:21:55;984.4;;;22.4;46.1
76046;BME280;64741;41.730;44.788;2023-02-01T15:26:53;984.5;;;22.4;46
76046;BME280;64741;41.730;44.788;2023-02-01T15:31:51;984.6;;;22.4;46
76046;BME280;64741;41.730;44.788;2023-02-01T15:36:53;984.6;;;22.4;46
76046;BME280;64741;41.730;44.788;2023-02-01T15:41:54;984.6;;;22.4;45.9
76046;BME280;64741;41.730;44.788;2023-02-01T15:46:55;984.7;;;22.4;45.8
76046;BME280;64741;41.730;44.788;2023-02-01T15:51:53;984.8;;;22.4;45.7
76046;BME280;64741;41.730;44.788;2023-02-01T15:56:54;984.9;;;22.4;45.7
76046;BME280;64741;41.730;44.788;2023-02-01T16:01:51;984.9;;;22.4;45.6
76046;BME280;64741;41.730;44.788;2023-02-01T16:06:56;985;;;22.4;45.6
76046;BME280;64741;41.730;44.788;2023-02-01T16:11:52;985.1;;;22.4;45.5
76046;BME280;64741;41.730;44.788;2023-02-01T16:16:56;985.2;;;22.3;45.5
76046;BME280;64741;41.730;44.788;2023-02-01T16:21:49;985.2;;;22.4;45.4
76046;BME280;64741;41.730;44.788;2023-02-01T16:26:51;985.1;;;22.4;45.4
76046;BME280;64741;41.730;44.788;2023-02-01T16:31:53;985.1;;;22.4;45.3
76046;BME280;64741;41.730;44.788;2023-02-01T16:36:51;985.2;;;22.3;45.1
76046;BME280;64741;41.730;44.788;2023-02-01T16:41:51;985.2;;;22.3;44.9
76046;BME280;64741;41.730;44.788;2023-02-01T16:46:55;985.3;;;22.3;44.8
76046;BME280;64741;41.730;44.788;2023-02-01T16:51:51;985.3;;;22.3;44.8
76046;BME280;64741;41.730;44.788;2023-02-01T16:56:53;985.3;;;22.3;44.9
76046;BME280;64741;41.730;44.788;2023-02-01T17:01:53;985.4;;;22.3;44.9
76046;BME280;64741;41.730;44.788;2023-02-01T17:06:51;985.6;;;22.3;45
76046;BME280;64741;41.730;44.788;2023-02-01T17:11:51;985.7;;;22.3;45.4
76046;BME280;64741;41.730;44.788;2023-02-01T17:16:53;985.7;;;22.3;45.7
76046;BME280;64741;41.730;44.788;2023-02-01T17:21:54;985.7;;;22.3;45.7
76046;BME280;64741;41.730;44.788;2023-02-01T17:26:51;985.7;;;22.3;45.7
76046;BME280;64741;41.730;44.788;2023-02-01T17:31:52;985.7;;;22.3;45.4
76046;BME280;64741;41.730;44.788;2023-02-01T17:36:53;985.8;;;22.3;45.4
76046;BME280;64741;41.730;44.788;2023-02-01T17:41:55;985.8;;;22.3;45.2
76046;BME280;64741;41.730;44.788;2023-02-01T17:46:51;985.8;;;22.3;45.1
76046;BME280;64741;41.730;44.788;2023-02-01T17:51:55;985.8;;;22.3;45
76046;BME280;64741;41.730;44.788;2023-02-01T17:56:53;985.9;;;22.3;44.9
76046;BME280;64741;41.730;44.788;2023-02-01T18:01:51;985.9;;;22.3;44.9
76046;BME280;64741;41.730;44.788;2023-02-01T18:06:53;985.9;;;22.3;44.8
76046;BME280;64741;41.730;44.788;2023-02-01T18:11:53;985.9;;;22.3;44.7
76046;BME280;64741;41.730;44.788;2023-02-01T18:16:55;985.9;;;22.3;44.6
76046;BME280;64741;41.730;44.788;2023-02-01T18:21:53;985.9;;;22.2;44.6
76046;BME280;64741;41.730;44.788;2023-02-01T18:26:53;985.9;;;22.2;44.6
76046;BME280;64741;41.730;44.788;2023-02-01T18:31:49;985.9;;;22.2;44.5
76046;BME280;64741;41.730;44.788;2023-02-01T18:36:51;985.9;;;22.2;44.4
76046;BME280;64741;41.730;44.788;2023-02-01T18:41:49;985.9;;;22.2;44.4
76046;BME280;64741;41.730;44.788;2023-02-01T18:46:15;985.8;;;22.2;44.4
76046;BME280;64741;41.730;44.788;2023-02-01T18:51:51;985.8;;;22.1;44.4
76046;BME280;64741;41.730;44.788;2023-02-01T18:56:51;985.9;;;22.2;44.4
76046;BME280;64741;41.730;44.788;2023-02-01T19:01:51;985.9;;;22.2;44.3
76046;BME280;64741;41.730;44.788;2023-02-01T19:06:37;985.9;;;22.1;44.2
76046;BME280;64741;41.730;44.788;2023-02-01T19:11:49;986;;;22.1;44.1
76046;BME280;64741;41.730;44.788;2023-02-01T19:16:51;986.1;;;22.1;44
76046;BME280;64741;41.730;44.788;2023-02-01T19:21:49;986.1;;;22.1;44
76046;BME280;64741;41.730;44.788;2023-02-01T19:26:49;986.1;;;22.1;43.9
76046;BME280;64741;41.730;44.788;2023-02-01T19:31:53;986.2;;;22.1;43.9
76046;BME280;64741;41.730;44.788;2023-02-01T19:36:53;986.2;;;22.1;43.9
76046;BME280;64741;41.730;44.788;2023-02-01T19:41:53;986.3;;;22.1;43.8
76046;BME280;64741;41.730;44.788;2023-02-01T19:46:49;986.3;;;22.1;43.7
76046;BME280;64741;41.730;44.788;2023-02-01T19:51:45;986.3;;;22;43.7
76046;BME280;64741;41.730;44.788;2023-02-01T19:56:53;986.4;;;22;43.7
76046;BME280;64741;41.730;44.788;2023-02-01T20:01:51;986.5;;;22;43.6
76046;BME280;64741;41.730;44.788;2023-02-01T20:06:51;986.5;;;22;43.6
76046;BME280;64741;41.730;44.788;2023-02-01T20:11:37;986.5;;;22;43.5
76046;BME280;64741;41.730;44.788;2023-02-01T20:16:49;986.4;;;22;43.5
76046;BME280;64741;41.730;44.788;2023-02-01T20:21:53;986.5;;;22;43.5
76046;BME280;64741;41.730;44.788;2023-02-01T20:26:53;986.6;;;22;43.5
76046;BME280;64741;41.730;44.788;2023-02-01T20:31:51;986.6;;;22;43.5
76046;BME280;64741;41.730;44.788;2023-02-01T20:36:51;986.5;;;22;43.5
76046;BME280;64741;41.730;44.788;2023-02-01T20:41:49;986.6;;;21.9;43.4
76046;BME280;64741;41.730;44.788;2023-02-01T20:46:55;986.6;;;21.9;43.4
76046;BME280;64741;41.730;44.788;2023-02-01T20:51:49;986.8;;;21.9;43.4
76046;BME280;64741;41.730;44.788;2023-02-01T20:56:27;986.9;;;21.9;43.4
76046;BME280;64741;41.730;44.788;2023-02-01T21:01:51;986.9;;;21.9;43.3
76046;BME280;64741;41.730;44.788;2023-02-01T21:06:54;986.9;;;21.9;43.4
76046;BME280;64741;41.730;44.788;2023-02-01T21:11:49;986.8;;;21.9;43.3
76046;BME280;64741;41.730;44.788;2023-02-01T21:16:53;986.8;;;21.9;43.2
76046;BME280;64741;41.730;44.788;2023-02-01T21:21:51;986.9;;;21.9;43.2
76046;BME280;64741;41.730;44.788;2023-02-01T21:26:53;987;;;21.9;43.2
76046;BME280;64741;41.730;44.788;2023-02-01T21:31:43;987;;;21.9;43.2
76046;BME280;64741;41.730;44.788;2023-02-01T21:36:51;987.1;;;21.9;43.1
76046;BME280;64741;41.730;44.788;2023-02-01T21:41:53;987;;;21.9;43.2
76046;BME280;64741;41.730;44.788;2023-02-01T21:46:55;987;;;21.8;43.1
76046;BME280;64741;41.730;44.788;2023-02-01T21:51:51;987;;;21.8;43.1
76046;BME280;64741;41.730;44.788;2023-02-01T21:56:51;987;;;21.8;43.3
76046;BME280;64741;41.730;44.788;2023-02-01T22:01:53;986.9;;;21.8;43.5
76046;BME280;64741;41.730;44.788;2023-02-01T22:06:51;986.9;;;21.8;43.5
76046;BME280;64741;41.730;44.788;2023-02-01T22:11:49;986.9;;;21.8;43.6
76046;BME280;64741;41.730;44.788;2023-02-01T22:16:51;986.9;;;21.8;43.6
76046;BME280;64741;41.730;44.788;2023-02-01T22:21:55;986.9;;;21.8;43.7
76046;BME280;64741;41.730;44.788;2023-02-01T22:26:55;987;;;21.8;43.6
76046;BME280;64741;41.730;44.788;2023-02-01T22:31:49;987;;;21.9;43.5
76046;BME280;64741;41.730;44.788;2023-02-01T22:36:51;987;;;21.9;43.5
76046;BME280;64741;41.730;44.788;2023-02-01T22:41:53;987;;;21.9;43.5
76046;BME280;64741;41.730;44.788;2023-02-01T22:46:49;987;;;21.9;43.5
76046;BME280;64741;41.730;44.788;2023-02-01T22:51:49;986.9;;;21.9;43.4
76046;BME280;64741;41.730;44.788;2023-02-01T22:56:53;986.9;;;21.9;43.4
76046;BME280;64741;41.730;44.788;2023-02-01T23:01:47;986.8;;;21.9;43.4
76046;BME280;64741;41.730;44.788;2023-02-01T23:06:47;986.8;;;21.9;43.5
76046;BME280;64741;41.730;44.788;2023-02-01T23:11:49;986.8;;;21.9;43.5
76046;BME280;64741;41.730;44.788;2023-02-01T23:16:49;986.8;;;21.9;43.4
76046;BME280;64741;41.730;44.788;2023-02-01T23:21:51;986.7;;;21.9;43.6
76046;BME280;64741;41.730;44.788;2023-02-01T23:26:47;986.6;;;21.9;43.7
76046;BME280;64741;41.730;44.788;2023-02-01T23:31:49;986.6;;;21.9;43.6
76046;BME280;64741;41.730;44.788;2023-02-01T23:36:53;986.6;;;21.9;43.4
76046;BME280;64741;41.730;44.788;2023-02-01T23:41:47;986.6;;;21.9;43.5
76046;BME280;64741;41.730;44.788;2023-02-01T23:46:53;986.5;;;21.9;43.5
76046;BME280;64741;41.730;44.788;2023-02-01T23:51:39;986.6;;;21.9;43.6
76046;BME280;64741;41.730;44.788;2023-02-01T23:56:40;986.4;;;21.9;43.7
